Time,TemperatureF,DewpointF,PressureIn,WindDirection,WindDirectionDegrees,WindSpeedMPH,WindSpeedGustMPH,Humidity,HourlyPrecipIn,Conditions,Clouds,dailyrainin,SoftwareType,DateUTC
2013-01-14 00:43:00,45.0,14.0,-100.00,East,87,-999.0,-999.0,28,-99.99,,,-99.99,,2013-01-14 08:43:00,
2013-01-14 00:53:00,45.0,14.0,-100.00,East,87,-999.0,-999.0,28,-99.99,,,-99.99,,2013-01-14 08:53:00,
2013-01-14 01:02:00,45.0,14.0,-100.00,East,87,-999.0,-999.0,28,-99.99,,,-99.99,,2013-01-14 09:02:00,
2013-01-14 01:11:00,45.0,13.0,-100.00,East,82,-999.0,13.0,27,-99.99,,,-99.99,,2013-01-14 09:11:00,
2013-01-14 01:22:00,45.0,13.0,-100.00,East,82,-999.0,13.0,27,-99.99,,,-99.99,,2013-01-14 09:22:00,
2013-01-14 01:33:00,45.0,13.0,0.00,ENE,76,-999.0,-999.0,27,-99.99,,,-99.99,,2013-01-14 09:33:00,
2013-01-14 01:42:00,45.0,13.0,0.00,ENE,76,-999.0,-999.0,27,-99.99,,,-99.99,,2013-01-14 09:42:00,
2013-01-14 01:53:00,45.0,13.0,0.00,ENE,76,-999.0,-999.0,27,-99.99,,,-99.99,,2013-01-14 09:53:00,
2013-01-14 02:02:00,45.0,13.0,0.00,ENE,76,-999.0,-999.0,27,-99.99,,,-99.99,,2013-01-14 10:02:00,
2013-01-14 02:42:00,45.0,11.0,-100.00,NE,53,-999.0,-999.0,25,-99.99,,,-99.99,,2013-01-14 10:42:00,
2013-01-14 02:53:00,45.0,11.0,-100.00,NE,53,-999.0,-999.0,25,-99.99,,,-99.99,,2013-01-14 10:53:00,
2013-01-14 03:02:00,45.0,11.0,-100.00,NE,53,-999.0,-999.0,25,-99.99,,,-99.99,,2013-01-14 11:02:00,
2013-01-14 03:11:00,44.0,10.0,-100.00,ENE,60,-999.0,10.0,25,-99.99,,,-99.99,,2013-01-14 11:11:00,
2013-01-14 03:22:00,44.0,10.0,-100.00,ENE,60,-999.0,10.0,25,-99.99,,,-99.99,,2013-01-14 11:22:00,
2013-01-14 03:32:00,44.0,10.0,-100.00,ENE,60,-999.0,10.0,25,-99.99,,,-99.99,,2013-01-14 11:32:00,
2013-01-14 03:42:00,44.0,11.0,-100.00,ESE,102,-999.0,-999.0,26,-99.99,,,0.00,,2013-01-14 11:42:00,
2013-01-14 03:53:00,44.0,11.0,-100.00,ESE,102,-999.0,-999.0,26,-99.99,,,0.00,,2013-01-14 11:53:00,
2013-01-14 04:02:00,44.0,11.0,-100.00,ESE,102,-999.0,-999.0,26,-99.99,,,0.00,,2013-01-14 12:02:00,
2013-01-14 04:12:00,43.0,10.0,-100.00,ENE,74,-999.0,6.0,26,-99.99,,,-99.99,,2013-01-14 12:12:00,
2013-01-14 04:22:00,43.0,10.0,-100.00,ENE,74,-999.0,6.0,26,-99.99,,,-99.99,,2013-01-14 12:22:00,
2013-01-14 04:33:00,43.0,10.0,-100.00,ENE,74,-999.0,6.0,26,-99.99,,,-99.99,,2013-01-14 12:33:00,
2013-01-14 04:42:00,42.0,10.0,0.00,East,85,-999.0,-999.0,27,-99.99,,,-99.99,,2013-01-14 12:42:00,
2013-01-14 04:53:00,42.0,10.0,0.00,East,85,-999.0,-999.0,27,-99.99,,,-99.99,,2013-01-14 12:53:00,
2013-01-14 05:03:00,42.0,10.0,0.00,East,85,-999.0,-999.0,27,-99.99,,,-99.99,,2013-01-14 13:03:00,
2013-01-14 05:12:00,41.0,10.0,-100.00,ENE,76,-999.0,3.0,28,-99.99,,,-99.99,,2013-01-14 13:12:00,
2013-01-14 05:22:00,41.0,10.0,-100.00,ENE,76,-999.0,3.0,28,-99.99,,,-99.99,,2013-01-14 13:22:00,
2013-01-14 05:33:00,41.0,10.0,-100.00,ESE,116,-999.0,-999.0,27,-99.99,,,0.00,,2013-01-14 13:33:00,
2013-01-14 05:43:00,41.0,10.0,-100.00,ESE,116,-999.0,-999.0,27,-99.99,,,0.00,,2013-01-14 13:43:00,
2013-01-14 05:53:00,41.0,10.0,-100.00,ESE,116,-999.0,-999.0,27,-99.99,,,0.00,,2013-01-14 13:53:00,
2013-01-14 06:02:00,41.0,10.0,-100.00,ESE,116,-999.0,-999.0,27,-99.99,,,0.00,,2013-01-14 14:02:00,
2013-01-14 06:12:00,41.0,10.0,-100.00,ENE,61,-999.0,3.0,28,-99.99,,,-99.99,,2013-01-14 14:12:00,
2013-01-14 06:22:00,41.0,10.0,-100.00,ENE,61,-999.0,3.0,28,-99.99,,,-99.99,,2013-01-14 14:22:00,
2013-01-14 06:33:00,40.0,10.0,-100.00,ENE,61,-999.0,-999.0,29,-99.99,,,0.00,,2013-01-14 14:33:00,
2013-01-14 06:42:00,40.0,10.0,-100.00,ENE,61,-999.0,-999.0,29,-99.99,,,0.00,,2013-01-14 14:42:00,
2013-01-14 06:53:00,40.0,10.0,-100.00,ENE,61,-999.0,-999.0,29,-99.99,,,0.00,,2013-01-14 14:53:00,
2013-01-14 07:03:00,40.0,10.0,-100.00,ENE,61,-999.0,-999.0,29,-99.99,,,0.00,,2013-01-14 15:03:00,
2013-01-14 07:12:00,39.0,10.0,-100.00,ENE,66,-999.0,3.0,30,-99.99,,,-99.99,,2013-01-14 15:12:00,
2013-01-14 07:23:00,39.0,10.0,-100.00,ENE,66,-999.0,3.0,30,-99.99,,,-99.99,,2013-01-14 15:23:00,
2013-01-14 07:33:00,39.0,10.0,-100.00,ENE,66,-999.0,3.0,30,-99.99,,,-99.99,,2013-01-14 15:33:00,
2013-01-14 07:42:00,40.0,10.0,0.00,North,9,-999.0,-999.0,29,-99.99,,,0.00,,2013-01-14 15:42:00,
2013-01-14 07:53:00,40.0,10.0,0.00,North,9,-999.0,-999.0,29,-99.99,,,0.00,,2013-01-14 15:53:00,
2013-01-14 08:02:00,40.0,10.0,0.00,North,9,-999.0,-999.0,29,-99.99,,,0.00,,2013-01-14 16:02:00,
2013-01-14 08:12:00,40.0,10.0,0.00,North,9,-999.0,-999.0,29,-99.99,,,0.00,,2013-01-14 16:12:00,
2013-01-14 08:33:00,43.0,10.0,-100.00,NE,36,-999.0,-999.0,26,-99.99,,,-99.99,,2013-01-14 16:33:00,
2013-01-14 08:43:00,43.0,10.0,-100.00,NE,36,-999.0,-999.0,26,-99.99,,,-99.99,,2013-01-14 16:43:00,
2013-01-14 08:53:00,43.0,10.0,-100.00,NE,36,-999.0,-999.0,26,-99.99,,,-99.99,,2013-01-14 16:53:00,
2013-01-14 09:03:00,43.0,10.0,-100.00,NE,36,-999.0,-999.0,26,-99.99,,,-99.99,,2013-01-14 17:03:00,
2013-01-14 09:12:00,44.0,10.0,-100.00,NE,36,-999.0,-999.0,25,-99.99,,,-99.99,,2013-01-14 17:12:00,
2013-01-14 09:22:00,44.0,10.0,-100.00,NE,36,-999.0,-999.0,25,-99.99,,,-99.99,,2013-01-14 17:22:00,
2013-01-14 09:33:00,44.0,10.0,-100.00,NE,36,-999.0,-999.0,25,-99.99,,,-99.99,,2013-01-14 17:33:00,
2013-01-14 10:43:00,49.0,10.0,0.00,NNE,29,-999.0,-999.0,20,-99.99,,,-99.99,,2013-01-14 18:43:00,
2013-01-14 10:53:00,49.0,10.0,0.00,NNE,29,-999.0,-999.0,20,-99.99,,,-99.99,,2013-01-14 18:53:00,
2013-01-14 11:03:00,49.0,10.0,0.00,NNE,29,-999.0,-999.0,20,-99.99,,,-99.99,,2013-01-14 19:03:00,
2013-01-14 11:13:00,52.0,-99.9,-100.00,North,-999,-999.0,-999.0,-999,-99.99,,,-99.99,,2013-01-14 19:13:00,
2013-01-14 11:23:00,52.0,-99.9,-100.00,North,-999,-999.0,-999.0,-999,-99.99,,,-99.99,,2013-01-14 19:23:00,
2013-01-14 11:33:00,52.0,-99.9,-100.00,North,-999,-999.0,-999.0,-999,-99.99,,,-99.99,,2013-01-14 19:33:00,
2013-01-14 11:43:00,52.0,-99.9,-100.00,North,-999,-999.0,-999.0,-999,-99.99,,,-99.99,,2013-01-14 19:43:00,
2013-01-14 12:43:00,55.0,11.0,-100.00,North,351,-999.0,9.0,17,-99.99,,,-99.99,,2013-01-14 20:43:00,
2013-01-14 12:53:00,55.0,11.0,-100.00,North,351,-999.0,9.0,17,-99.99,,,-99.99,,2013-01-14 20:53:00,
2013-01-14 13:02:00,55.0,11.0,-100.00,North,351,-999.0,9.0,17,-99.99,,,-99.99,,2013-01-14 21:02:00,
2013-01-14 13:12:00,56.0,12.0,-100.00,North,0,-999.0,8.0,17,-99.99,,,-99.99,,2013-01-14 21:12:00,
2013-01-14 13:22:00,56.0,12.0,-100.00,North,0,-999.0,8.0,17,-99.99,,,-99.99,,2013-01-14 21:22:00,
2013-01-14 13:33:00,56.0,12.0,-100.00,North,0,-999.0,8.0,17,-99.99,,,-99.99,,2013-01-14 21:33:00,
2013-01-14 13:42:00,59.0,13.0,0.00,NW,314,-999.0,-999.0,16,-99.99,,,-99.99,,2013-01-14 21:42:00,
2013-01-14 13:53:00,59.0,13.0,0.00,NW,314,-999.0,-999.0,16,-99.99,,,-99.99,,2013-01-14 21:53:00,
2013-01-14 14:02:00,59.0,13.0,0.00,NW,314,-999.0,-999.0,16,-99.99,,,-99.99,,2013-01-14 22:02:00,
2013-01-14 14:12:00,56.0,21.0,-100.00,SW,225,-999.0,7.0,25,-99.99,,,-99.99,,2013-01-14 22:12:00,
2013-01-14 14:23:00,56.0,21.0,-100.00,SW,225,-999.0,7.0,25,-99.99,,,-99.99,,2013-01-14 22:23:00,
2013-01-14 14:32:00,56.0,21.0,-100.00,SW,225,-999.0,7.0,25,-99.99,,,-99.99,,2013-01-14 22:32:00,
2013-01-14 14:42:00,56.0,21.0,-100.00,SW,225,-999.0,7.0,25,-99.99,,,-99.99,,2013-01-14 22:42:00,
2013-01-14 15:12:00,55.0,23.0,-100.00,WNW,283,-999.0,9.0,28,-99.99,,,-99.99,,2013-01-14 23:12:00,
2013-01-14 15:22:00,55.0,23.0,-100.00,WNW,283,-999.0,9.0,28,-99.99,,,-99.99,,2013-01-14 23:22:00,
2013-01-14 15:32:00,55.0,23.0,-100.00,WNW,283,-999.0,9.0,28,-99.99,,,-99.99,,2013-01-14 23:32:00,
2013-01-14 15:42:00,55.0,23.0,-100.00,SSW,211,-999.0,8.0,28,-99.99,,,0.00,,2013-01-14 23:42:00,
2013-01-14 15:53:00,55.0,23.0,-100.00,SSW,211,-999.0,8.0,28,-99.99,,,0.00,,2013-01-14 23:53:00,
2013-01-14 16:02:00,55.0,23.0,-100.00,SSW,211,-999.0,8.0,28,-99.99,,,0.00,,2013-01-15 00:02:00,
2013-01-14 16:12:00,54.0,27.0,-100.00,SSW,194,-999.0,9.0,35,-99.99,,,-99.99,,2013-01-15 00:12:00,
2013-01-14 16:22:00,54.0,27.0,-100.00,SSW,194,-999.0,9.0,35,-99.99,,,-99.99,,2013-01-15 00:22:00,
2013-01-14 16:32:00,54.0,27.0,-100.00,SSW,194,-999.0,9.0,35,-99.99,,,-99.99,,2013-01-15 00:32:00,
2013-01-14 16:42:00,54.0,27.0,-100.00,SSW,194,-999.0,9.0,35,-99.99,,,-99.99,,2013-01-15 00:42:00,
2013-01-14 17:12:00,51.0,33.0,-100.00,West,273,-999.0,6.0,49,-99.99,,,-99.99,,2013-01-15 01:12:00,
2013-01-14 17:22:00,51.0,33.0,-100.00,West,273,-999.0,6.0,49,-99.99,,,-99.99,,2013-01-15 01:22:00,
2013-01-14 17:32:00,51.0,33.0,-100.00,West,273,-999.0,6.0,49,-99.99,,,-99.99,,2013-01-15 01:32:00,
2013-01-14 17:42:00,49.0,34.0,-100.00,West,267,-999.0,-999.0,57,-99.99,,,0.00,,2013-01-15 01:42:00,
2013-01-14 17:52:00,49.0,34.0,-100.00,West,267,-999.0,-999.0,57,-99.99,,,0.00,,2013-01-15 01:52:00,
2013-01-14 18:02:00,49.0,34.0,-100.00,West,267,-999.0,-999.0,57,-99.99,,,0.00,,2013-01-15 02:02:00,
2013-01-14 18:12:00,47.0,29.0,-100.00,WNW,293,-999.0,-999.0,50,-99.99,,,-99.99,,2013-01-15 02:12:00,
2013-01-14 18:22:00,47.0,29.0,-100.00,WNW,293,-999.0,-999.0,50,-99.99,,,-99.99,,2013-01-15 02:22:00,
2013-01-14 18:32:00,47.0,29.0,-100.00,WNW,293,-999.0,-999.0,50,-99.99,,,-99.99,,2013-01-15 02:32:00,
2013-01-14 18:42:00,47.0,15.0,-100.00,NNE,30,-999.0,5.0,27,-99.99,,,0.00,,2013-01-15 02:42:00,
2013-01-14 18:53:00,47.0,15.0,-100.00,NNE,30,-999.0,5.0,27,-99.99,,,0.00,,2013-01-15 02:53:00,
2013-01-14 19:12:00,46.0,11.0,-100.00,NE,52,-999.0,-999.0,24,-99.99,,,-99.99,,2013-01-15 03:12:00,
2013-01-14 19:22:00,46.0,11.0,-100.00,NE,52,-999.0,-999.0,24,-99.99,,,-99.99,,2013-01-15 03:22:00,
2013-01-14 19:42:00,46.0,10.0,0.00,NNE,19,-999.0,7.0,23,-99.99,,,0.00,,2013-01-15 03:42:00,
2013-01-14 19:52:00,46.0,10.0,0.00,NNE,19,-999.0,7.0,23,-99.99,,,0.00,,2013-01-15 03:52:00,
2013-01-14 20:02:00,46.0,10.0,0.00,NNE,19,-999.0,7.0,23,-99.99,,,0.00,,2013-01-15 04:02:00,
2013-01-14 20:12:00,45.0,9.0,-100.00,NNE,21,-999.0,8.0,23,-99.99,,,-99.99,,2013-01-15 04:12:00,
2013-01-14 20:22:00,45.0,9.0,-100.00,NNE,21,-999.0,8.0,23,-99.99,,,-99.99,,2013-01-15 04:22:00,
2013-01-14 20:32:00,45.0,9.0,-100.00,NE,41,-999.0,8.0,23,-99.99,,,0.00,,2013-01-15 04:32:00,
2013-01-14 20:42:00,45.0,9.0,-100.00,NE,41,-999.0,8.0,23,-99.99,,,0.00,,2013-01-15 04:42:00,
2013-01-14 20:52:00,45.0,9.0,-100.00,NE,41,-999.0,8.0,23,-99.99,,,0.00,,2013-01-15 04:52:00,
2013-01-14 21:03:00,45.0,9.0,-100.00,NE,41,-999.0,8.0,23,-99.99,,,0.00,,2013-01-15 05:03:00,
2013-01-14 21:12:00,46.0,10.0,-100.00,NNE,27,-999.0,8.0,23,-99.99,,,-99.99,,2013-01-15 05:12:00,
2013-01-14 21:22:00,46.0,10.0,-100.00,NNE,27,-999.0,8.0,23,-99.99,,,-99.99,,2013-01-15 05:22:00,
2013-01-14 21:33:00,46.0,10.0,-100.00,NNE,27,-999.0,8.0,23,-99.99,,,-99.99,,2013-01-15 05:33:00,
2013-01-14 21:42:00,45.0,11.0,-100.00,NNE,28,-999.0,9.0,25,-99.99,,,0.00,,2013-01-15 05:42:00,
2013-01-14 21:52:00,45.0,11.0,-100.00,NNE,28,-999.0,9.0,25,-99.99,,,0.00,,2013-01-15 05:52:00,
2013-01-14 22:02:00,45.0,11.0,-100.00,NNE,28,-999.0,9.0,25,-99.99,,,0.00,,2013-01-15 06:02:00,
2013-01-14 22:12:00,46.0,11.0,-100.00,NNE,19,-999.0,9.0,24,-99.99,,,-99.99,,2013-01-15 06:12:00,
2013-01-14 22:22:00,46.0,11.0,-100.00,NNE,19,-999.0,9.0,24,-99.99,,,-99.99,,2013-01-15 06:22:00,
2013-01-14 22:32:00,46.0,11.0,-100.00,NNE,19,-999.0,9.0,24,-99.99,,,-99.99,,2013-01-15 06:32:00,
2013-01-14 22:42:00,46.0,11.0,-100.00,NNE,19,-999.0,9.0,24,-99.99,,,-99.99,,2013-01-15 06:42:00,
2013-01-14 23:43:00,47.0,11.0,-100.00,NNE,29,-999.0,9.0,23,-99.99,,,-99.99,,2013-01-15 07:43:00,
2013-01-14 23:52:00,47.0,11.0,-100.00,NNE,29,-999.0,9.0,23,-99.99,,,-99.99,,2013-01-15 07:52:00,